sensor_id;sensor_type;location;lat;lon;timestamp;pressure;altitude;pressure_sealevel;temperature;humidity
24666;BME280;29726;53.532;-1.478;2023-02-28T00:01:53;102452.06;;;12.02;100.00
24666;BME280;29726;53.532;-1.478;2023-02-28T00:04:37;102439.84;;;11.92;100.00
24666;BME280;29726;53.532;-1.478;2023-02-28T00:07:21;102440.56;;;11.96;100.00
24666;BME280;29726;53.532;-1.478;2023-02-28T00:10:07;102445.75;;;11.98;100.00
24666;BME280;29726;53.532;-1.478;2023-02-28T00:12:52;102442.59;;;11.96;100.00
24666;BME280;29726;53.532;-1.478;2023-02-28T00:15:37;102455.28;;;12.00;100.00
24666;BME280;29726;53.532;-1.478;2023-02-28T00:18:21;102455.72;;;11.99;100.00
24666;BME280;29726;53.532;-1.478;2023-02-28T00:21:06;102463.31;;;11.98;100.00
24666;BME280;29726;53.532;-1.478;2023-02-28T00:23:50;102450.59;;;11.94;100.00
24666;BME280;29726;53.532;-1.478;2023-02-28T00:26:34;102462.22;;;11.92;100.00
24666;BME280;29726;53.532;-1.478;2023-02-28T00:29:18;102466.66;;;11.90;100.00
24666;BME280;29726;53.532;-1.478;2023-02-28T00:32:04;102476.94;;;11.96;100.00
24666;BME280;29726;53.532;-1.478;2023-02-28T00:34:48;102468.59;;;11.93;100.00
24666;BME280;29726;53.532;-1.478;2023-02-28T00:37:32;102467.47;;;11.90;100.00
24666;BME280;29726;53.532;-1.478;2023-02-28T00:40:16;102474.66;;;11.91;100.00
24666;BME280;29726;53.532;-1.478;2023-02-28T00:43:00;102471.03;;;11.91;100.00
24666;BME280;29726;53.532;-1.478;2023-02-28T00:45:44;102470.69;;;11.89;100.00
24666;BME280;29726;53.532;-1.478;2023-02-28T00:48:28;102475.94;;;11.87;100.00
24666;BME280;29726;53.532;-1.478;2023-02-28T00:51:12;102483.56;;;11.86;100.00
24666;BME280;29726;53.532;-1.478;2023-02-28T00:53:56;102485.91;;;11.88;100.00
24666;BME280;29726;53.532;-1.478;2023-02-28T00:56:40;102482.31;;;11.87;100.00
24666;BME280;29726;53.532;-1.478;2023-02-28T00:59:24;102467.16;;;11.85;100.00
24666;BME280;29726;53.532;-1.478;2023-02-28T01:02:07;102469.25;;;11.81;100.00
24666;BME280;29726;53.532;-1.478;2023-02-28T01:04:51;102470.47;;;11.80;100.00
24666;BME280;29726;53.532;-1.478;2023-02-28T01:07:36;102455.75;;;11.76;100.00
24666;BME280;29726;53.532;-1.478;2023-02-28T01:10:20;102465.38;;;11.75;100.00
24666;BME280;29726;53.532;-1.478;2023-02-28T01:13:05;102476.44;;;11.82;100.00
24666;BME280;29726;53.532;-1.478;2023-02-28T01:15:52;102469.25;;;11.81;100.00
24666;BME280;29726;53.532;-1.478;2023-02-28T01:18:37;102458.97;;;11.74;100.00
24666;BME280;29726;53.532;-1.478;2023-02-28T01:21:21;102470.88;;;11.78;100.00
24666;BME280;29726;53.532;-1.478;2023-02-28T01:24:05;102478.50;;;11.78;100.00
24666;BME280;29726;53.532;-1.478;2023-02-28T01:26:51;102467.06;;;11.69;100.00
24666;BME280;29726;53.532;-1.478;2023-02-28T01:29:35;102467.44;;;11.71;100.00
24666;BME280;29726;53.532;-1.478;2023-02-28T01:32:19;102468.22;;;11.71;100.00
24666;BME280;29726;53.532;-1.478;2023-02-28T01:35:03;102473.88;;;11.68;100.00
24666;BME280;29726;53.532;-1.478;2023-02-28T01:37:47;102478.63;;;11.71;100.00
24666;BME280;29726;53.532;-1.478;2023-02-28T01:40:31;102473.09;;;11.67;100.00
24666;BME280;29726;53.532;-1.478;2023-02-28T01:43:52;102483.84;;;11.69;100.00
24666;BME280;29726;53.532;-1.478;2023-02-28T01:46:36;102468.41;;;11.61;100.00
24666;BME280;29726;53.532;-1.478;2023-02-28T01:49:20;102472.28;;;11.67;100.00
24666;BME280;29726;53.532;-1.478;2023-02-28T01:52:04;102455.25;;;11.62;100.00
24666;BME280;29726;53.532;-1.478;2023-02-28T01:54:52;102472.75;;;11.65;100.00
24666;BME280;29726;53.532;-1.478;2023-02-28T01:57:42;102450.47;;;11.58;100.00
24666;BME280;29726;53.532;-1.478;2023-02-28T02:00:28;102459.16;;;11.64;100.00
24666;BME280;29726;53.532;-1.478;2023-02-28T02:03:16;102461.59;;;11.62;100.00
24666;BME280;29726;53.532;-1.478;2023-02-28T02:06:05;102469.59;;;11.63;100.00
24666;BME280;29726;53.532;-1.478;2023-02-28T02:08:49;102454.84;;;11.59;100.00
24666;BME280;29726;53.532;-1.478;2023-02-28T02:11:34;102464.84;;;11.61;100.00
24666;BME280;29726;53.532;-1.478;2023-02-28T02:14:49;102464.84;;;11.61;100.00
24666;BME280;29726;53.532;-1.478;2023-02-28T02:17:48;102450.09;;;11.57;100.00
24666;BME280;29726;53.532;-1.478;2023-02-28T02:35:56;102468.53;;;11.54;100.00
24666;BME280;29726;53.532;-1.478;2023-02-28T02:41:49;102451.56;;;11.42;100.00
24666;BME280;29726;53.532;-1.478;2023-02-28T02:44:46;102458.59;;;11.50;100.00
24666;BME280;29726;53.532;-1.478;2023-02-28T02:47:33;102456.22;;;11.48;100.00
24666;BME280;29726;53.532;-1.478;2023-02-28T02:50:24;102467.81;;;11.50;100.00
24666;BME280;29726;53.532;-1.478;2023-02-28T02:53:11;102458.59;;;11.50;100.00
24666;BME280;29726;53.532;-1.478;2023-02-28T02:55:58;102451.44;;;11.49;100.00
24666;BME280;29726;53.532;-1.478;2023-02-28T02:58:44;102449.03;;;11.47;100.00
24666;BME280;29726;53.532;-1.478;2023-02-28T03:01:32;102457.03;;;11.49;100.00
24666;BME280;29726;53.532;-1.478;2023-02-28T03:04:20;102447.59;;;11.39;100.00
24666;BME280;29726;53.532;-1.478;2023-02-28T03:07:04;102445.03;;;11.48;100.00
24666;BME280;29726;53.532;-1.478;2023-02-28T03:09:56;102434.47;;;11.36;100.00
24666;BME280;29726;53.532;-1.478;2023-02-28T03:12:51;102453.06;;;11.46;100.00
24666;BME280;29726;53.532;-1.478;2023-02-28T03:22:10;102446.69;;;11.46;100.00
24666;BME280;29726;53.532;-1.478;2023-02-28T03:26:02;102450.72;;;11.45;100.00
24666;BME280;29726;53.532;-1.478;2023-02-28T03:31:18;102449.91;;;11.44;100.00
24666;BME280;29726;53.532;-1.478;2023-02-28T03:34:14;102448.31;;;11.43;100.00
24666;BME280;29726;53.532;-1.478;2023-02-28T03:37:07;102444.75;;;11.43;100.00
24666;BME280;29726;53.532;-1.478;2023-02-28T03:40:08;102429.28;;;11.35;100.00
24666;BME280;29726;53.532;-1.478;2023-02-28T03:43:01;102441.66;;;11.37;100.00
24666;BME280;29726;53.532;-1.478;2023-02-28T03:45:48;102452.41;;;11.39;100.00
24666;BME280;29726;53.532;-1.478;2023-02-28T03:48:47;102455.56;;;11.41;100.00
24666;BME280;29726;53.532;-1.478;2023-02-28T03:51:34;102462.81;;;11.38;100.00
24666;BME280;29726;53.532;-1.478;2023-02-28T03:54:27;102457.22;;;11.38;100.00
24666;BME280;29726;53.532;-1.478;2023-02-28T03:57:27;102458.38;;;11.41;100.00
24666;BME280;29726;53.532;-1.478;2023-02-28T04:00:24;102450.03;;;11.37;100.00
24666;BME280;29726;53.532;-1.478;2023-02-28T04:03:12;102436.19;;;11.30;100.00
24666;BME280;29726;53.532;-1.478;2023-02-28T04:05:57;102446.88;;;11.35;100.00
24666;BME280;29726;53.532;-1.478;2023-02-28T04:08:41;102426.28;;;11.26;100.00
24666;BME280;29726;53.532;-1.478;2023-02-28T04:14:31;102433.75;;;11.32;100.00
24666;BME280;29726;53.532;-1.478;2023-02-28T04:17:16;102439.34;;;11.32;100.00
24666;BME280;29726;53.532;-1.478;2023-02-28T04:20:00;102425.84;;;11.27;100.00
24666;BME280;29726;53.532;-1.478;2023-02-28T04:22:44;102426.28;;;11.26;100.00
24666;BME280;29726;53.532;-1.478;2023-02-28T04:25:28;102436.97;;;11.31;100.00
24666;BME280;29726;53.532;-1.478;2023-02-28T04:28:12;102429.88;;;11.26;100.00
24666;BME280;29726;53.532;-1.478;2023-02-28T04:30:57;102447.72;;;11.32;100.00
24666;BME280;29726;53.532;-1.478;2023-02-28T04:33:42;102445.34;;;11.31;100.00
24666;BME280;29726;53.532;-1.478;2023-02-28T04:36:26;102443.41;;;11.28;100.00
24666;BME280;29726;53.532;-1.478;2023-02-28T04:39:10;102405.53;;;11.00;100.00
24666;BME280;29726;53.532;-1.478;2023-02-28T04:41:54;102440.28;;;11.22;100.00
24666;BME280;29726;53.532;-1.478;2023-02-28T04:44:39;102452.97;;;11.30;100.00
24666;BME280;29726;53.532;-1.478;2023-02-28T04:47:23;102422.59;;;11.06;100.00
24666;BME280;29726;53.532;-1.478;2023-02-28T04:50:07;102440.78;;;11.17;100.00
24666;BME280;29726;53.532;-1.478;2023-02-28T04:52:52;102384.69;;;10.82;100.00
24666;BME280;29726;53.532;-1.478;2023-02-28T04:55:36;102459.41;;;11.27;100.00
24666;BME280;29726;53.532;-1.478;2023-02-28T04:58:24;102459.78;;;11.29;100.00
24666;BME280;29726;53.532;-1.478;2023-02-28T05:01:20;102457.38;;;11.28;100.00
24666;BME280;29726;53.532;-1.478;2023-02-28T05:04:04;102452.22;;;11.26;100.00
24666;BME280;29726;53.532;-1.478;2023-02-28T05:06:48;102453.88;;;11.24;100.00
24666;BME280;29726;53.532;-1.478;2023-02-28T05:09:32;102444.78;;;11.16;100.00
24666;BME280;29726;53.532;-1.478;2023-02-28T05:12:19;102454.63;;;11.24;100.00
24666;BME280;29726;53.532;-1.478;2023-02-28T05:15:04;102438.44;;;11.16;100.00
24666;BME280;29726;53.532;-1.478;2023-02-28T05:17:48;102455.03;;;11.26;100.00
24666;BME280;29726;53.532;-1.478;2023-02-28T05:20:33;102463.84;;;11.25;100.00
24666;BME280;29726;53.532;-1.478;2023-02-28T05:23:17;102416.41;;;10.95;100.00
24666;BME280;29726;53.532;-1.478;2023-02-28T05:26:03;102455.06;;;11.23;100.00
24666;BME280;29726;53.532;-1.478;2023-02-28T05:28:48;102449.91;;;11.21;100.00
24666;BME280;29726;53.532;-1.478;2023-02-28T05:31:33;102447.81;;;11.25;100.00
24666;BME280;29726;53.532;-1.478;2023-02-28T05:34:17;102455.84;;;11.23;100.00
24666;BME280;29726;53.532;-1.478;2023-02-28T05:37:02;102381.09;;;10.81;100.00
24666;BME280;29726;53.532;-1.478;2023-02-28T05:39:45;102446.81;;;11.16;100.00
24666;BME280;29726;53.532;-1.478;2023-02-28T05:42:29;102455.94;;;11.20;100.00
24666;BME280;29726;53.532;-1.478;2023-02-28T05:45:13;102453.66;;;11.11;100.00
24666;BME280;29726;53.532;-1.478;2023-02-28T05:47:57;102463.94;;;11.18;100.00
24666;BME280;29726;53.532;-1.478;2023-02-28T05:50:42;102459.13;;;11.18;100.00
24666;BME280;29726;53.532;-1.478;2023-02-28T05:53:26;102445.78;;;11.06;100.00
24666;BME280;29726;53.532;-1.478;2023-02-28T05:56:10;102463.19;;;11.14;100.00
24666;BME280;29726;53.532;-1.478;2023-02-28T05:58:54;102467.13;;;11.20;100.00
24666;BME280;29726;53.532;-1.478;2023-02-28T06:01:44;102419.28;;;10.88;100.00
24666;BME280;29726;53.532;-1.478;2023-02-28T06:04:34;102465.53;;;11.19;100.00
24666;BME280;29726;53.532;-1.478;2023-02-28T06:07:17;102461.16;;;11.18;100.00
24666;BME280;29726;53.532;-1.478;2023-02-28T06:10:01;102458.38;;;11.18;100.00
24666;BME280;29726;53.532;-1.478;2023-02-28T06:12:45;102463.50;;;11.19;100.00
24666;BME280;29726;53.532;-1.478;2023-02-28T06:15:31;102455.97;;;11.16;100.00
24666;BME280;29726;53.532;-1.478;2023-02-28T06:18:15;102457.25;;;11.12;100.00
24666;BME280;29726;53.532;-1.478;2023-02-28T06:20:59;102455.19;;;11.16;100.00
24666;BME280;29726;53.532;-1.478;2023-02-28T06:23:43;102463.94;;;11.18;100.00
24666;BME280;29726;53.532;-1.478;2023-02-28T06:26:28;102456.34;;;11.18;100.00
24666;BME280;29726;53.532;-1.478;2023-02-28T06:29:12;102462.84;;;11.12;100.00
24666;BME280;29726;53.532;-1.478;2023-02-28T06:32:01;102460.03;;;11.12;100.00
24666;BME280;29726;53.532;-1.478;2023-02-28T06:34:45;102461.22;;;11.14;100.00
24666;BME280;29726;53.532;-1.478;2023-02-28T06:37:31;102469.22;;;11.12;100.00
24666;BME280;29726;53.532;-1.478;2023-02-28T06:40:15;102453.78;;;11.04;100.00
24666;BME280;29726;53.532;-1.478;2023-02-28T06:42:59;102467.66;;;11.11;100.00
24666;BME280;29726;53.532;-1.478;2023-02-28T06:45:44;102476.00;;;11.15;100.00
24666;BME280;29726;53.532;-1.478;2023-02-28T06:48:28;102473.28;;;11.08;100.00
24666;BME280;29726;53.532;-1.478;2023-02-28T06:51:16;102475.59;;;11.13;100.00
24666;BME280;29726;53.532;-1.478;2023-02-28T06:54:01;102476.41;;;11.13;100.00
24666;BME280;29726;53.532;-1.478;2023-02-28T06:56:45;102485.19;;;11.12;100.00
24666;BME280;29726;53.532;-1.478;2023-02-28T06:59:28;102479.97;;;11.14;100.00
24666;BME280;29726;53.532;-1.478;2023-02-28T07:02:13;102479.31;;;11.06;100.00
24666;BME280;29726;53.532;-1.478;2023-02-28T07:04:57;102484.81;;;11.10;100.00
24666;BME280;29726;53.532;-1.478;2023-02-28T07:07:40;102470.25;;;10.99;100.00
24666;BME280;29726;53.532;-1.478;2023-02-28T07:10:27;102481.25;;;11.09;100.00
24666;BME280;29726;53.532;-1.478;2023-02-28T07:13:11;102482.47;;;11.08;100.00
24666;BME280;29726;53.532;-1.478;2023-02-28T07:16:00;102486.03;;;11.09;100.00
24666;BME280;29726;53.532;-1.478;2023-02-28T07:18:45;102487.34;;;11.04;100.00
24666;BME280;29726;53.532;-1.478;2023-02-28T07:21:29;102494.88;;;11.07;100.00
24666;BME280;29726;53.532;-1.478;2023-02-28T07:24:13;102485.75;;;11.03;100.00
24666;BME280;29726;53.532;-1.478;2023-02-28T07:26:59;102490.50;;;11.06;100.00
24666;BME280;29726;53.532;-1.478;2023-02-28T07:29:43;102490.84;;;11.08;100.00
24666;BME280;29726;53.532;-1.478;2023-02-28T07:32:27;102508.78;;;11.11;100.00
24666;BME280;29726;53.532;-1.478;2023-02-28T07:35:12;102493.66;;;11.08;100.00
24666;BME280;29726;53.532;-1.478;2023-02-28T07:38:00;102488.16;;;11.01;100.00
24666;BME280;29726;53.532;-1.478;2023-02-28T07:40:44;102501.22;;;11.08;100.00
24666;BME280;29726;53.532;-1.478;2023-02-28T07:43:28;102499.25;;;11.08;100.00
24666;BME280;29726;53.532;-1.478;2023-02-28T07:46:14;102498.03;;;11.09;100.00
24666;BME280;29726;53.532;-1.478;2023-02-28T07:48:59;102502.03;;;11.08;100.00
24666;BME280;29726;53.532;-1.478;2023-02-28T07:51:43;102488.97;;;11.02;100.00
24666;BME280;29726;53.532;-1.478;2023-02-28T07:54:28;102502.44;;;11.07;100.00
24666;BME280;29726;53.532;-1.478;2023-02-28T07:57:12;102490.16;;;11.01;100.00
24666;BME280;29726;53.532;-1.478;2023-02-28T07:59:56;102480.69;;;10.95;100.00
24666;BME280;29726;53.532;-1.478;2023-02-28T08:02:40;102514.00;;;11.09;100.00
24666;BME280;29726;53.532;-1.478;2023-02-28T08:05:24;102506.03;;;11.07;100.00
24666;BME280;29726;53.532;-1.478;2023-02-28T08:08:08;102490.59;;;10.99;100.00
24666;BME280;29726;53.532;-1.478;2023-02-28T08:10:52;102505.31;;;11.03;100.00
24666;BME280;29726;53.532;-1.478;2023-02-28T08:13:36;102511.56;;;11.11;100.00
24666;BME280;29726;53.532;-1.478;2023-02-28T08:16:20;102511.28;;;11.05;100.00
24666;BME280;29726;53.532;-1.478;2023-02-28T08:19:05;102501.22;;;11.08;100.00
24666;BME280;29726;53.532;-1.478;2023-02-28T08:21:49;102513.94;;;11.12;100.00
24666;BME280;29726;53.532;-1.478;2023-02-28T08:24:33;102489.44;;;10.97;100.00
24666;BME280;29726;53.532;-1.478;2023-02-28T08:27:17;102496.97;;;11.00;100.00
24666;BME280;29726;53.532;-1.478;2023-02-28T08:30:02;102504.47;;;11.06;100.00
24666;BME280;29726;53.532;-1.478;2023-02-28T08:32:47;102503.66;;;11.06;100.00
24666;BME280;29726;53.532;-1.478;2023-02-28T08:35:31;102505.25;;;11.07;100.00
24666;BME280;29726;53.532;-1.478;2023-02-28T08:38:15;102510.34;;;11.12;100.00
24666;BME280;29726;53.532;-1.478;2023-02-28T08:41:01;102499.16;;;11.12;100.00
24666;BME280;29726;53.532;-1.478;2023-02-28T08:43:45;102497.66;;;11.07;100.00
24666;BME280;29726;53.532;-1.478;2023-02-28T08:46:30;102500.38;;;11.11;100.00
24666;BME280;29726;53.532;-1.478;2023-02-28T08:49:13;102500.03;;;11.09;100.00
24666;BME280;29726;53.532;-1.478;2023-02-28T08:51:57;102519.09;;;11.14;100.00
24666;BME280;29726;53.532;-1.478;2023-02-28T08:54:41;102513.50;;;11.14;100.00
24666;BME280;29726;53.532;-1.478;2023-02-28T08:57:25;102522.72;;;11.14;100.00
24666;BME280;29726;53.532;-1.478;2023-02-28T09:00:10;102518.69;;;11.15;100.00
24666;BME280;29726;53.532;-1.478;2023-02-28T09:02:57;102515.16;;;11.11;100.00
24666;BME280;29726;53.532;-1.478;2023-02-28T09:05:41;102518.28;;;11.17;100.00
24666;BME280;29726;53.532;-1.478;2023-02-28T09:08:28;102515.91;;;11.15;100.00
24666;BME280;29726;53.532;-1.478;2023-02-28T09:11:12;102519.44;;;11.19;100.00
24666;BME280;29726;53.532;-1.478;2023-02-28T09:13:57;102510.31;;;11.15;100.00
24666;BME280;29726;53.532;-1.478;2023-02-28T09:16:42;102513.47;;;11.17;100.00
24666;BME280;29726;53.532;-1.478;2023-02-28T09:19:26;102464.75;;;10.92;100.00
24666;BME280;29726;53.532;-1.478;2023-02-28T09:22:10;102521.38;;;11.22;100.00
24666;BME280;29726;53.532;-1.478;2023-02-28T09:24:54;102511.00;;;11.23;100.00
24666;BME280;29726;53.532;-1.478;2023-02-28T09:27:38;102463.91;;;10.95;100.00
24666;BME280;29726;53.532;-1.478;2023-02-28T09:30:22;102507.88;;;11.17;100.00
24666;BME280;29726;53.532;-1.478;2023-02-28T09:33:06;102507.88;;;11.17;100.00
24666;BME280;29726;53.532;-1.478;2023-02-28T09:35:52;102512.94;;;11.26;100.00
24666;BME280;29726;53.532;-1.478;2023-02-28T09:38:41;102514.53;;;11.27;100.00
24666;BME280;29726;53.532;-1.478;2023-02-28T09:41:27;102514.09;;;11.28;100.00
24666;BME280;29726;53.532;-1.478;2023-02-28T09:44:33;102518.50;;;11.29;100.00
24666;BME280;29726;53.532;-1.478;2023-02-28T09:50:38;102530.41;;;11.33;100.00
24666;BME280;29726;53.532;-1.478;2023-02-28T09:56:18;102524.38;;;11.35;100.00
24666;BME280;29726;53.532;-1.478;2023-02-28T09:59:22;102526.75;;;11.36;100.00
24666;BME280;29726;53.532;-1.478;2023-02-28T10:05:11;102513.31;;;11.28;100.00
24666;BME280;29726;53.532;-1.478;2023-02-28T10:08:05;102531.88;;;11.41;100.00
24666;BME280;29726;53.532;-1.478;2023-02-28T10:10:55;102532.66;;;11.42;100.00
24666;BME280;29726;53.532;-1.478;2023-02-28T10:16:34;102516.97;;;11.48;100.00
24666;BME280;29726;53.532;-1.478;2023-02-28T10:19:24;102520.94;;;11.50;100.00
24666;BME280;29726;53.532;-1.478;2023-02-28T10:22:17;102521.31;;;11.52;100.00
24666;BME280;29726;53.532;-1.478;2023-02-28T10:25:18;102505.84;;;11.44;100.00
24666;BME280;29726;53.532;-1.478;2023-02-28T10:28:15;102517.25;;;11.57;100.00
24666;BME280;29726;53.532;-1.478;2023-02-28T10:30:59;102521.97;;;11.59;100.00
24666;BME280;29726;53.532;-1.478;2023-02-28T10:33:44;102513.97;;;11.62;100.00
24666;BME280;29726;53.532;-1.478;2023-02-28T10:36:28;102500.81;;;11.58;100.00
24666;BME280;29726;53.532;-1.478;2023-02-28T10:39:41;102517.50;;;11.65;100.00
24666;BME280;29726;53.532;-1.478;2023-02-28T10:42:28;102516.69;;;11.65;100.00
24666;BME280;29726;53.532;-1.478;2023-02-28T10:45:16;102504.28;;;11.66;100.00
24666;BME280;29726;53.532;-1.478;2023-02-28T10:48:50;102499.06;;;11.68;100.00
24666;BME280;29726;53.532;-1.478;2023-02-28T10:51:09;102500.53;;;11.76;100.00
24666;BME280;29726;53.532;-1.478;2023-02-28T10:53:55;102502.53;;;11.75;100.00
24666;BME280;29726;53.532;-1.478;2023-02-28T10:56:39;102500.88;;;11.78;100.00
24666;BME280;29726;53.532;-1.478;2023-02-28T10:59:30;102504.41;;;11.82;100.00
24666;BME280;29726;53.532;-1.478;2023-02-28T11:02:33;102500.41;;;11.83;100.00
24666;BME280;29726;53.532;-1.478;2023-02-28T11:05:30;102493.94;;;11.86;100.00
24666;BME280;29726;53.532;-1.478;2023-02-28T11:08:16;102497.09;;;11.88;100.00
24666;BME280;29726;53.532;-1.478;2023-02-28T11:11:04;102481.22;;;11.81;100.00
24666;BME280;29726;53.532;-1.478;2023-02-28T11:13:53;102488.19;;;11.93;100.00
24666;BME280;29726;53.532;-1.478;2023-02-28T11:16:38;102481.03;;;11.92;100.00
24666;BME280;29726;53.532;-1.478;2023-02-28T11:19:26;102464.16;;;11.95;100.00
24666;BME280;29726;53.532;-1.478;2023-02-28T11:22:18;102474.56;;;11.95;100.00
24666;BME280;29726;53.532;-1.478;2023-02-28T11:25:09;102478.97;;;11.96;100.00
24666;BME280;29726;53.532;-1.478;2023-02-28T11:27:56;102485.28;;;12.00;100.00
24666;BME280;29726;53.532;-1.478;2023-02-28T11:30:41;102477.66;;;12.00;100.00
24666;BME280;29726;53.532;-1.478;2023-02-28T11:33:31;102505.47;;;12.11;100.00
24666;BME280;29726;53.532;-1.478;2023-02-28T11:36:23;102505.41;;;12.14;100.00
24666;BME280;29726;53.532;-1.478;2023-02-28T11:39:19;102480.63;;;12.13;100.00
24666;BME280;29726;53.532;-1.478;2023-02-28T11:42:11;102479.69;;;12.19;100.00
24666;BME280;29726;53.532;-1.478;2023-02-28T11:45:44;102455.19;;;12.23;100.00
24666;BME280;29726;53.532;-1.478;2023-02-28T11:49:10;102458.34;;;12.25;100.00
24666;BME280;29726;53.532;-1.478;2023-02-28T11:55:56;102449.03;;;12.32;100.00
24666;BME280;29726;53.532;-1.478;2023-02-28T11:58:16;102452.19;;;12.34;100.00
24666;BME280;29726;53.532;-1.478;2023-02-28T12:04:09;102452.13;;;12.37;100.00
24666;BME280;29726;53.532;-1.478;2023-02-28T12:07:02;102426.19;;;12.33;100.00
24666;BME280;29726;53.532;-1.478;2023-02-28T12:13:25;102419.50;;;12.47;100.00
24666;BME280;29726;53.532;-1.478;2023-02-28T12:16:38;102416.16;;;12.52;100.00
24666;BME280;29726;53.532;-1.478;2023-02-28T12:19:41;102406.91;;;12.55;100.00
24666;BME280;29726;53.532;-1.478;2023-02-28T12:28:46;102383.81;;;12.67;100.00
24666;BME280;29726;53.532;-1.478;2023-02-28T12:31:39;102394.50;;;12.72;100.00
24666;BME280;29726;53.532;-1.478;2023-02-28T12:34:28;102383.81;;;12.67;100.00
24666;BME280;29726;53.532;-1.478;2023-02-28T12:37:21;102398.00;;;12.76;100.00
24666;BME280;29726;53.532;-1.478;2023-02-28T12:40:13;102394.66;;;12.81;100.00
24666;BME280;29726;53.532;-1.478;2023-02-28T12:43:02;102391.09;;;12.80;100.00
24666;BME280;29726;53.532;-1.478;2023-02-28T12:45:55;102386.19;;;12.84;100.00
24666;BME280;29726;53.532;-1.478;2023-02-28T12:48:44;102393.38;;;12.85;100.00
24666;BME280;29726;53.532;-1.478;2023-02-28T12:51:31;102372.69;;;12.79;100.00
24666;BME280;29726;53.532;-1.478;2023-02-28T13:00:23;102374.78;;;12.91;100.00
24666;BME280;29726;53.532;-1.478;2023-02-28T13:03:51;102376.38;;;12.92;100.00
24666;BME280;29726;53.532;-1.478;2023-02-28T13:09:56;102356.47;;;12.87;100.00
24666;BME280;29726;53.532;-1.478;2023-02-28T13:12:51;102366.69;;;12.97;100.00
24666;BME280;29726;53.532;-1.478;2023-02-28T13:15:36;102371.06;;;12.98;100.00
24666;BME280;29726;53.532;-1.478;2023-02-28T13:21:26;102332.66;;;12.79;100.00
24666;BME280;29726;53.532;-1.478;2023-02-28T13:24:11;102359.50;;;12.96;100.00
24666;BME280;29726;53.532;-1.478;2023-02-28T13:33:29;102337.22;;;13.05;100.00
24666;BME280;29726;53.532;-1.478;2023-02-28T13:39:03;102337.34;;;13.01;100.00
24666;BME280;29726;53.532;-1.478;2023-02-28T13:41:49;102346.78;;;13.07;100.00
24666;BME280;29726;53.532;-1.478;2023-02-28T13:48:00;102341.50;;;13.09;100.00
24666;BME280;29726;53.532;-1.478;2023-02-28T13:50:45;102341.59;;;13.06;100.00
24666;BME280;29726;53.532;-1.478;2023-02-28T13:53:43;102350.28;;;13.11;100.00
24666;BME280;29726;53.532;-1.478;2023-02-28T13:56:44;102353.88;;;13.12;100.00
24666;BME280;29726;53.532;-1.478;2023-02-28T13:59:43;102347.03;;;13.13;100.00
24666;BME280;29726;53.532;-1.478;2023-02-28T14:11:47;102347.13;;;13.09;100.00
24666;BME280;29726;53.532;-1.478;2023-02-28T14:17:21;102345.81;;;13.14;100.00
24666;BME280;29726;53.532;-1.478;2023-02-28T14:20:15;102361.41;;;13.15;100.00
24666;BME280;29726;53.532;-1.478;2023-02-28T14:23:19;102358.59;;;13.15;100.00
24666;BME280;29726;53.532;-1.478;2023-02-28T14:35:51;102372.63;;;13.15;100.00
24666;BME280;29726;53.532;-1.478;2023-02-28T14:38:59;102363.06;;;13.12;100.00
24666;BME280;29726;53.532;-1.478;2023-02-28T14:41:46;102371.06;;;13.14;100.00
24666;BME280;29726;53.532;-1.478;2023-02-28T14:44:31;102349.59;;;13.07;100.00
24666;BME280;29726;53.532;-1.478;2023-02-28T14:47:16;102347.91;;;13.10;100.00
24666;BME280;29726;53.532;-1.478;2023-02-28T14:50:02;102363.88;;;13.13;100.00
24666;BME280;29726;53.532;-1.478;2023-02-28T14:52:51;102353.44;;;13.13;100.00
24666;BME280;29726;53.532;-1.478;2023-02-28T14:55:36;102350.28;;;13.11;100.00
24666;BME280;29726;53.532;-1.478;2023-02-28T14:58:29;102343.78;;;13.14;100.00
24666;BME280;29726;53.532;-1.478;2023-02-28T15:01:19;102347.38;;;13.15;100.00
24666;BME280;29726;53.532;-1.478;2023-02-28T15:04:06;102330.38;;;13.06;100.00
24666;BME280;29726;53.532;-1.478;2023-02-28T15:07:10;102330.56;;;13.15;100.00
24666;BME280;29726;53.532;-1.478;2023-02-28T15:13:07;102332.13;;;13.16;100.00
24666;BME280;29726;53.532;-1.478;2023-02-28T15:16:01;102332.13;;;13.16;100.00
24666;BME280;29726;53.532;-1.478;2023-02-28T15:19:03;102324.97;;;13.15;100.00
24666;BME280;29726;53.532;-1.478;2023-02-28T15:21:52;102278.34;;;12.89;100.00
24666;BME280;29726;53.532;-1.478;2023-02-28T15:24:44;102298.41;;;13.03;100.00
24666;BME280;29726;53.532;-1.478;2023-02-28T15:27:32;102326.97;;;13.14;100.00
24666;BME280;29726;53.532;-1.478;2023-02-28T15:30:31;102324.50;;;13.16;100.00
24666;BME280;29726;53.532;-1.478;2023-02-28T15:36:26;102324.16;;;13.14;100.00
24666;BME280;29726;53.532;-1.478;2023-02-28T15:39:41;102318.13;;;13.16;100.00
24666;BME280;29726;53.532;-1.478;2023-02-28T15:42:29;102307.06;;;13.09;100.00
24666;BME280;29726;53.532;-1.478;2023-02-28T15:48:24;102309.28;;;13.01;100.00
24666;BME280;29726;53.532;-1.478;2023-02-28T15:51:19;102320.31;;;13.08;100.00
24666;BME280;29726;53.532;-1.478;2023-02-28T15:54:11;102327.16;;;13.07;100.00
24666;BME280;29726;53.532;-1.478;2023-02-28T15:57:03;102314.72;;;13.08;100.00
24666;BME280;29726;53.532;-1.478;2023-02-28T15:59:57;102314.72;;;13.08;100.00
24666;BME280;29726;53.532;-1.478;2023-02-28T16:02:44;102322.44;;;13.04;100.00
24666;BME280;29726;53.532;-1.478;2023-02-28T16:05:30;102327.50;;;13.09;100.00
24666;BME280;29726;53.532;-1.478;2023-02-28T16:08:15;102317.78;;;12.98;100.00
24666;BME280;29726;53.532;-1.478;2023-02-28T16:10:59;102330.84;;;13.04;100.00
24666;BME280;29726;53.532;-1.478;2023-02-28T16:13:43;102293.34;;;12.82;100.00